Time;durP1;ratioP1;P1;durP2;ratioP2;P2;SDS_P1;SDS_P2;PMS_P1;PMS_P2;Temp;Humidity;BMP_temperature;BMP_pressure;BME280_temperature;BME280_humidity;BME280_pressure;Samples;Min_cycle;Max_cycle;Signal;HPM_P1;HPM_P2
2022/11/01 00:01:58;;;;;;;29.73;12.40;;;;;;;13.41;85.58;100603.91;4431575;32;34646;-77
2022/11/01 00:04:26;;;;;;;28.58;12.00;;;;;;;13.54;85.11;100601.06;4432796;32;33860;-77
2022/11/01 00:06:54;;;;;;;25.67;11.80;;;;;;;13.59;84.79;100590.84;4447443;32;34030;-77
2022/11/01 00:09:22;;;;;;;25.45;10.90;;;;;;;13.88;83.82;100592.13;4438342;32;34045;-77
2022/11/01 00:11:50;;;;;;;25.25;12.60;;;;;;;13.91;83.63;100594.88;4441605;32;32040;-77
2022/11/01 00:14:18;;;;;;;28.80;12.80;;;;;;;13.64;84.74;100591.06;4442622;32;34841;-77
2022/11/01 00:16:46;;;;;;;28.83;10.90;;;;;;;13.83;83.72;100585.84;4444476;32;33978;-77
2022/11/01 00:19:14;;;;;;;27.20;11.93;;;;;;;13.47;85.60;100583.38;4441671;32;33246;-77
2022/11/01 00:21:43;;;;;;;31.85;12.07;;;;;;;13.43;85.69;100591.84;4435504;32;33680;-78
2022/11/01 00:24:11;;;;;;;28.40;11.40;;;;;;;13.45;85.60;100597.13;4429087;32;33647;-77
2022/11/01 00:26:39;;;;;;;29.45;12.07;;;;;;;13.35;86.10;100588.91;4434058;32;33725;-77
2022/11/01 00:29:07;;;;;;;25.00;12.02;;;;;;;13.34;86.59;100586.22;4436298;32;33561;-77
2022/11/01 00:31:34;;;;;;;33.05;11.20;;;;;;;13.16;87.08;100587.13;4436031;32;33729;-78
2022/11/01 00:34:04;;;;;;;25.55;10.45;;;;;;;13.17;87.60;100581.09;4440256;32;33928;-77
2022/11/01 00:36:33;;;;;;;23.52;10.82;;;;;;;13.29;86.35;100588.59;4447639;32;33597;-78
2022/11/01 00:39:02;;;;;;;21.30;10.45;;;;;;;13.30;86.31;100584.31;4432504;32;34134;-77
2022/11/01 00:41:31;;;;;;;24.10;10.93;;;;;;;13.23;86.49;100582.19;4433825;32;33727;-77
2022/11/01 00:43:58;;;;;;;21.70;9.93;;;;;;;13.62;84.33;100582.25;4432245;32;33619;-78
2022/11/01 00:46:26;;;;;;;23.67;10.27;;;;;;;13.59;84.03;100582.13;4444142;32;33803;-78
2022/11/01 00:48:54;;;;;;;24.25;10.18;;;;;;;13.18;85.88;100574.19;4431017;32;33966;-77
2022/11/01 00:51:22;;;;;;;23.12;9.60;;;;;;;13.47;84.35;100579.87;4436045;32;34562;-77
2022/11/01 00:53:50;;;;;;;24.12;9.70;;;;;;;13.49;85.52;100576.50;4431201;32;34442;-77
2022/11/01 00:56:19;;;;;;;20.75;9.65;;;;;;;13.52;85.35;100571.47;4433435;32;34547;-78
2022/11/01 00:58:46;;;;;;;26.35;10.75;;;;;;;13.38;85.40;100572.53;4432682;32;33169;-78
2022/11/01 01:01:15;;;;;;;22.00;10.25;;;;;;;13.41;85.80;100562.28;4435850;32;33830;-78
2022/11/01 01:03:43;;;;;;;24.73;9.65;;;;;;;13.12;86.28;100559.19;4439673;32;33766;-77
2022/11/01 01:06:11;;;;;;;21.48;9.60;;;;;;;13.06;86.76;100552.81;4436709;32;33790;-77
2022/11/01 01:08:39;;;;;;;22.45;10.27;;;;;;;13.21;86.15;100557.81;4434339;32;33068;-77
2022/11/01 01:11:07;;;;;;;24.83;10.40;;;;;;;13.15;86.26;100559.34;4432697;32;34560;-77
2022/11/01 01:13:35;;;;;;;20.67;10.05;;;;;;;13.22;86.28;100562.22;4430637;32;33835;-78
2022/11/01 01:16:08;;;;;;;24.55;10.98;;;;;;;13.03;87.17;100553.53;4444868;32;33565;-77
2022/11/01 01:18:37;;;;;;;23.25;10.23;;;;;;;13.20;86.78;100556.06;4436828;32;33163;-78
2022/11/01 01:21:06;;;;;;;23.90;9.52;;;;;;;13.00;87.11;100537.81;4423147;32;33613;-77
2022/11/01 01:23:34;;;;;;;26.42;10.82;;;;;;;13.26;86.30;100530.31;4447922;32;34373;-77
2022/11/01 01:26:06;;;;;;;24.87;10.80;;;;;;;13.16;86.08;100540.28;4429943;32;34519;-78
2022/11/01 01:28:34;;;;;;;27.90;10.50;;;;;;;13.20;85.91;100543.94;4431153;32;33003;-77
2022/11/01 01:31:11;;;;;;;26.12;11.35;;;;;;;13.26;85.49;100543.31;4431384;32;34521;-77
2022/11/01 01:33:39;;;;;;;30.25;12.68;;;;;;;13.01;86.84;100544.78;4435310;32;34896;-78
2022/11/01 01:36:07;;;;;;;25.08;11.10;;;;;;;13.30;85.68;100545.28;4437216;32;34680;-77
2022/11/01 01:38:35;;;;;;;24.05;10.55;;;;;;;13.50;84.92;100541.87;4440692;32;33683;-78
2022/11/01 01:43:49;;;;;;;24.27;10.93;;;;;;;13.51;84.40;100530.62;4432837;32;33775;-78
2022/11/01 01:46:17;;;;;;;28.05;11.25;;;;;;;13.36;84.95;100533.41;4436292;32;34285;-77
2022/11/01 01:48:47;;;;;;;31.92;12.95;;;;;;;13.53;83.98;100536.78;4445689;32;31655;-77
2022/11/01 01:51:18;;;;;;;28.27;11.40;;;;;;;13.33;85.04;100538.50;4434716;32;32981;-77
2022/11/01 01:53:49;;;;;;;26.20;11.52;;;;;;;13.30;85.18;100532.25;4436295;32;33844;-77
2022/11/01 01:56:30;;;;;;;23.33;11.15;;;;;;;13.24;85.48;100526.75;4443249;32;33851;-77
2022/11/01 01:59:02;;;;;;;28.20;11.05;;;;;;;13.32;85.66;100530.62;4439755;32;33373;-77
2022/11/01 02:01:31;;;;;;;26.40;10.50;;;;;;;13.52;84.08;100527.22;4434889;32;33925;-77
2022/11/01 02:04:01;;;;;;;26.17;11.52;;;;;;;12.97;86.13;100533.34;4443915;32;34750;-78
2022/11/01 02:06:31;;;;;;;23.92;10.10;;;;;;;13.09;85.95;100533.00;4445211;32;33990;-78
2022/11/01 02:09:00;;;;;;;28.90;11.43;;;;;;;13.43;84.74;100524.19;4446633;32;33896;-77
2022/11/01 02:11:28;;;;;;;29.08;11.07;;;;;;;13.49;84.02;100524.47;4422030;32;33901;-77
2022/11/01 02:13:56;;;;;;;25.60;11.20;;;;;;;13.17;86.24;100518.69;4436650;32;33711;-77
2022/11/01 02:16:40;;;;;;;26.83;11.60;;;;;;;13.31;85.51;100521.94;4444088;32;33756;-77
2022/11/01 02:19:17;;;;;;;27.98;11.85;;;;;;;13.56;83.93;100523.91;4429408;32;33249;-77
2022/11/01 02:22:05;;;;;;;27.77;12.45;;;;;;;13.20;85.41;100519.63;4432256;32;33761;-77
2022/11/01 02:25:01;;;;;;;31.15;11.20;;;;;;;13.48;84.20;100517.50;4434430;32;33830;-77
2022/11/01 02:27:33;;;;;;;30.02;11.68;;;;;;;13.29;84.74;100520.94;4429305;32;33802;-77
2022/11/01 02:30:07;;;;;;;27.67;11.27;;;;;;;13.27;84.78;100521.66;4432893;32;33382;-77
2022/11/01 02:33:00;;;;;;;35.75;12.20;;;;;;;13.17;85.76;100518.69;4429434;32;33973;-78
2022/11/01 02:35:37;;;;;;;29.12;12.25;;;;;;;13.29;85.30;100509.62;4428428;32;32757;-78
2022/11/01 02:38:17;;;;;;;32.78;13.43;;;;;;;12.96;87.08;100499.47;4435508;32;34186;-77
2022/11/01 02:41:07;;;;;;;26.45;12.07;;;;;;;13.46;84.13;100493.12;4439416;32;33195;-78
2022/11/01 02:43:45;;;;;;;31.45;12.60;;;;;;;13.40;84.18;100492.81;4439366;32;34504;-77
2022/11/01 02:49:03;;;;;;;30.50;12.95;;;;;;;13.27;85.01;100500.84;4442938;32;34077;-77
2022/11/01 02:51:32;;;;;;;30.40;13.00;;;;;;;13.40;84.42;100498.03;4435707;32;32851;-77
2022/11/01 02:54:18;;;;;;;35.47;13.45;;;;;;;13.39;84.90;100501.47;4436994;32;33588;-78
2022/11/01 02:56:47;;;;;;;24.70;11.12;;;;;;;13.48;84.41;100493.16;4433032;32;33698;-77
2022/11/01 02:59:22;;;;;;;32.72;13.27;;;;;;;13.23;84.93;100498.94;4436426;32;33615;-78
2022/11/01 03:01:57;;;;;;;31.65;13.80;;;;;;;13.43;84.28;100498.16;4417512;32;33929;-77
2022/11/01 03:04:25;;;;;;;31.52;13.23;;;;;;;12.85;87.64;100500.69;4443255;32;33960;-78
2022/11/01 03:06:58;;;;;;;31.33;14.07;;;;;;;13.10;86.77;100493.19;4415488;32;34463;-77
2022/11/01 03:09:26;;;;;;;32.47;13.15;;;;;;;13.25;85.36;100502.50;4435760;32;33809;-77
2022/11/01 03:12:02;;;;;;;27.87;12.82;;;;;;;13.34;84.84;100508.16;4422057;32;223915;-78
2022/11/01 03:15:04;;;;;;;32.58;12.43;;;;;;;13.47;84.58;100509.59;4453566;32;34031;-77
2022/11/01 03:17:40;;;;;;;30.73;14.23;;;;;;;13.39;85.10;100506.66;4409665;32;33879;-77
2022/11/01 03:20:22;;;;;;;37.55;13.60;;;;;;;13.32;85.27;100499.41;4434605;32;33668;-77
2022/11/01 03:22:55;;;;;;;31.15;13.32;;;;;;;13.40;85.35;100492.81;4444052;32;33288;-77
2022/11/01 03:25:43;;;;;;;33.97;14.23;;;;;;;13.52;83.80;100498.59;4425605;32;33745;-77
2022/11/01 03:28:17;;;;;;;31.00;13.85;;;;;;;13.62;83.19;100498.97;4440862;32;34000;-77
2022/11/01 03:30:56;;;;;;;31.50;13.60;;;;;;;13.15;84.97;100506.41;4427273;32;33918;-77
2022/11/01 03:33:24;;;;;;;30.10;13.48;;;;;;;13.40;84.61;100503.22;4412661;32;33205;-77
2022/11/01 03:35:56;;;;;;;32.88;14.27;;;;;;;13.50;83.69;100508.03;4433792;32;33651;-78
2022/11/01 03:38:26;;;;;;;31.98;12.90;;;;;;;13.35;84.16;100507.34;4424148;32;33910;-78
2022/11/01 03:40:56;;;;;;;35.42;13.80;;;;;;;13.24;84.73;100505.94;4439454;32;34127;-77
2022/11/01 03:43:25;;;;;;;39.72;15.13;;;;;;;13.26;85.19;100499.09;4423463;32;33469;-77
2022/11/01 03:45:53;;;;;;;32.38;13.48;;;;;;;13.42;84.61;100501.56;4424717;32;35188;-77
2022/11/01 03:48:21;;;;;;;36.70;14.35;;;;;;;13.47;84.29;100500.09;4449809;32;33808;-77
2022/11/01 03:50:50;;;;;;;39.90;14.52;;;;;;;13.21;85.17;100500.59;4441081;32;34571;-77
2022/11/01 03:53:18;;;;;;;30.62;12.43;;;;;;;13.42;84.01;100496.38;4438127;32;35308;-77
2022/11/01 03:55:46;;;;;;;35.38;13.80;;;;;;;13.43;84.07;100500.78;4429085;32;33952;-77
2022/11/01 03:58:15;;;;;;;36.50;13.57;;;;;;;13.04;85.96;100494.59;4424708;32;33556;-77
2022/11/01 04:00:44;;;;;;;35.95;14.25;;;;;;;13.17;85.96;100497.87;4432887;32;33881;-77
2022/11/01 04:03:12;;;;;;;37.72;14.02;;;;;;;12.99;86.71;100478.81;4428094;32;33361;-77
2022/11/01 04:05:41;;;;;;;35.95;13.50;;;;;;;12.95;86.40;100474.28;4431054;32;34499;-77
2022/11/01 04:08:10;;;;;;;36.00;14.68;;;;;;;13.08;86.23;100479.22;4449604;32;33724;-77
2022/11/01 04:10:38;;;;;;;34.97;13.57;;;;;;;13.20;85.58;100484.09;4431075;32;33712;-77
2022/11/01 04:13:07;;;;;;;34.88;13.75;;;;;;;13.30;85.26;100475.03;4438455;32;34026;-77
2022/11/01 04:21:13;;;;;;;39.17;14.90;;;;;;;13.16;86.06;100477.84;4427494;32;34434;-77
2022/11/01 04:23:43;;;;;;;37.72;15.55;;;;;;;13.52;84.55;100471.63;4434621;32;33388;-78
2022/11/01 04:26:15;;;;;;;31.70;13.73;;;;;;;13.62;84.31;100478.13;4440864;32;34169;-77
2022/11/01 04:28:55;;;;;;;36.58;15.85;;;;;;;13.58;84.61;100477.13;4443921;32;33537;-77
2022/11/01 04:31:35;;;;;;;34.55;13.95;;;;;;;13.75;82.96;100480.44;4430144;32;33879;-77
2022/11/01 04:34:04;;;;;;;35.33;14.63;;;;;;;13.19;85.05;100471.91;4425470;32;34252;-77
2022/11/01 04:36:32;;;;;;;38.72;14.20;;;;;;;12.79;87.03;100483.97;4436970;32;33890;-78
2022/11/01 04:39:00;;;;;;;32.20;13.85;;;;;;;12.75;88.20;100479.47;4438577;32;34594;-77
2022/11/01 04:41:29;;;;;;;33.90;15.07;;;;;;;12.64;89.43;100470.25;4438931;32;33654;-77
2022/11/01 04:43:57;;;;;;;34.15;13.10;;;;;;;12.80;87.77;100477.06;4429902;32;31954;-78
2022/11/01 04:46:30;;;;;;;34.20;13.30;;;;;;;12.66;88.53;100478.13;4435422;32;34860;-77
2022/11/01 04:48:58;;;;;;;26.30;12.48;;;;;;;12.72;87.99;100474.09;4438754;32;33850;-77
2022/11/01 04:51:26;;;;;;;28.23;12.80;;;;;;;12.98;86.84;100480.53;4432859;32;34000;-77
2022/11/01 04:53:54;;;;;;;24.92;11.45;;;;;;;12.73;87.46;100470.69;4424448;32;34859;-77
2022/11/01 04:56:22;;;;;;;29.02;12.25;;;;;;;12.94;86.54;100485.50;4442785;32;33548;-77
2022/11/01 04:58:50;;;;;;;28.67;12.82;;;;;;;12.90;86.25;100486.19;4441264;32;34460;-77
2022/11/01 05:01:18;;;;;;;29.48;12.48;;;;;;;12.59;88.01;100482.13;4429608;32;34761;-78
2022/11/01 05:03:47;;;;;;;27.55;13.15;;;;;;;12.93;86.50;100475.94;4435756;32;33206;-77
2022/11/01 05:06:15;;;;;;;25.65;12.57;;;;;;;12.93;86.31;100486.34;4440910;32;32404;-78
2022/11/01 05:08:43;;;;;;;27.95;12.48;;;;;;;12.73;87.39;100475.00;4439276;32;34664;-78
2022/11/01 05:11:11;;;;;;;29.37;13.48;;;;;;;12.87;86.64;100483.44;4433366;32;34073;-78
2022/11/01 05:13:39;;;;;;;31.65;13.52;;;;;;;13.42;84.52;100480.75;4446055;32;33483;-78
2022/11/01 05:16:07;;;;;;;27.65;12.13;;;;;;;13.20;84.92;100478.00;4435997;32;33849;-78
2022/11/01 05:18:51;;;;;;;30.00;12.45;;;;;;;13.22;84.42;100471.16;4432222;32;34857;-78
2022/11/01 05:21:19;;;;;;;32.05;12.82;;;;;;;13.76;81.78;100467.50;4431710;32;34559;-78
2022/11/01 05:23:47;;;;;;;30.00;12.55;;;;;;;13.30;83.40;100469.81;4450023;32;33979;-78
2022/11/01 05:26:15;;;;;;;28.02;12.10;;;;;;;13.60;82.58;100466.75;4430226;32;34178;-77
2022/11/01 05:28:44;;;;;;;28.58;11.45;;;;;;;13.09;84.79;100465.38;4438232;32;33719;-78
2022/11/01 05:31:12;;;;;;;32.63;13.35;;;;;;;13.12;84.82;100454.25;4425827;32;33420;-78
2022/11/01 05:33:40;;;;;;;27.37;11.88;;;;;;;13.17;84.06;100461.44;4436845;32;32938;-78
2022/11/01 05:36:08;;;;;;;27.30;11.80;;;;;;;13.21;84.39;100470.25;4445901;32;33748;-78
2022/11/01 05:38:36;;;;;;;26.70;12.27;;;;;;;13.21;84.08;100474.56;4440493;32;33244;-78
2022/11/01 05:41:04;;;;;;;27.62;11.88;;;;;;;13.53;83.17;100474.31;4445379;32;33728;-78
2022/11/01 05:43:32;;;;;;;31.67;11.65;;;;;;;13.41;83.63;100478.13;4440040;32;33391;-78
2022/11/01 05:46:05;;;;;;;27.02;12.02;;;;;;;13.36;83.20;100475.28;4431364;32;33915;-78
2022/11/01 05:48:34;;;;;;;25.85;12.07;;;;;;;13.37;83.05;100466.69;4418449;32;32463;-78
2022/11/01 05:51:02;;;;;;;22.02;10.38;;;;;;;13.17;84.11;100477.06;4441344;32;33984;-78
2022/11/01 05:53:30;;;;;;;24.15;10.65;;;;;;;13.30;84.17;100480.22;4442610;32;33177;-78
2022/11/01 05:55:58;;;;;;;27.33;10.60;;;;;;;13.24;83.60;100475.59;4424475;32;32349;-78
2022/11/01 05:58:26;;;;;;;30.70;12.65;;;;;;;13.28;83.92;100474.91;4444498;32;33708;-77
2022/11/01 06:01:03;;;;;;;27.83;12.10;;;;;;;13.23;83.79;100473.84;4438859;32;34424;-77
2022/11/01 06:03:34;;;;;;;26.50;11.82;;;;;;;13.18;84.59;100473.63;4445863;32;33011;-77
2022/11/01 06:06:02;;;;;;;35.10;14.05;;;;;;;13.07;84.81;100482.62;4434849;32;33468;-77
2022/11/01 06:08:31;;;;;;;29.98;13.88;;;;;;;13.00;85.33;100483.19;4440763;32;33709;-77
2022/11/01 06:11:03;;;;;;;33.20;13.90;;;;;;;13.15;84.13;100486.50;4433825;32;34777;-77
2022/11/01 06:13:32;;;;;;;35.17;14.63;;;;;;;13.25;83.81;100486.88;4443627;32;32758;-77
2022/11/01 06:16:01;;;;;;;30.00;13.20;;;;;;;13.41;82.76;100488.53;4443038;32;33561;-77
2022/11/01 06:18:29;;;;;;;33.40;13.52;;;;;;;12.90;85.41;100491.37;4441894;32;33872;-77
2022/11/01 06:20:58;;;;;;;35.05;14.55;;;;;;;13.17;84.40;100479.66;4436836;32;33696;-77
2022/11/01 06:23:26;;;;;;;37.58;15.10;;;;;;;13.28;83.77;100482.72;4436992;32;33173;-77
2022/11/01 06:26:04;;;;;;;39.83;15.90;;;;;;;12.92;85.17;100484.53;4439223;32;34545;-77
2022/11/01 06:28:33;;;;;;;38.45;15.50;;;;;;;12.92;85.87;100489.72;4428954;32;33847;-77
2022/11/01 06:31:03;;;;;;;32.33;14.45;;;;;;;13.33;84.29;100485.59;4427109;32;33646;-77
2022/11/01 06:33:31;;;;;;;35.13;14.50;;;;;;;13.11;84.65;100484.56;4423272;32;32924;-77
2022/11/01 06:36:00;;;;;;;36.17;16.02;;;;;;;12.70;87.17;100478.34;4426603;32;33486;-77
2022/11/01 06:38:28;;;;;;;38.50;16.60;;;;;;;12.16;89.75;100480.94;4413635;32;32344;-77
2022/11/01 06:40:56;;;;;;;40.00;16.08;;;;;;;12.39;88.08;100484.69;4426081;32;33515;-78
2022/11/01 06:43:24;;;;;;;34.53;14.93;;;;;;;12.75;87.70;100495.06;4428602;32;34147;-77
2022/11/01 06:45:52;;;;;;;34.53;13.88;;;;;;;12.52;87.36;100495.69;4425465;32;33653;-77
2022/11/01 06:48:20;;;;;;;29.73;13.60;;;;;;;12.86;86.04;100500.75;4428580;32;34781;-77
2022/11/01 06:50:52;;;;;;;33.15;14.48;;;;;;;12.58;87.19;100495.97;4430910;32;33598;-77
2022/11/01 06:53:21;;;;;;;33.03;14.05;;;;;;;12.85;86.40;100500.69;4435323;32;33343;-77
2022/11/01 06:55:51;;;;;;;29.70;13.57;;;;;;;12.92;86.46;100514.06;4434118;32;34417;-77
2022/11/01 06:58:19;;;;;;;29.48;13.90;;;;;;;13.07;85.17;100498.25;4419085;32;34970;-77
2022/11/01 07:00:47;;;;;;;28.02;13.62;;;;;;;13.29;84.13;100501.81;4421956;32;32644;-78
2022/11/01 07:03:15;;;;;;;28.67;13.00;;;;;;;13.25;84.25;100510.31;4421419;32;33404;-78
2022/11/01 07:05:44;;;;;;;29.98;12.85;;;;;;;13.12;84.81;100506.28;4426867;32;34388;-77
2022/11/01 07:08:12;;;;;;;31.50;14.50;;;;;;;13.21;84.22;100505.78;4427527;32;33969;-78
2022/11/01 07:10:42;;;;;;;28.92;13.27;;;;;;;13.21;84.35;100506.66;4440582;32;34492;-78
2022/11/01 07:13:12;;;;;;;34.15;13.65;;;;;;;13.07;84.96;100503.44;4416750;32;34094;-77
2022/11/01 07:15:40;;;;;;;32.33;14.23;;;;;;;13.40;83.43;100508.44;4443052;32;33833;-78
2022/11/01 07:18:08;;;;;;;32.78;14.20;;;;;;;13.31;84.30;100513.25;4433694;32;35083;-77
2022/11/01 07:20:40;;;;;;;31.92;14.05;;;;;;;13.20;84.72;100514.44;4426992;32;33455;-77
2022/11/01 07:23:14;;;;;;;30.80;13.35;;;;;;;13.33;83.95;100511.59;4415020;32;33758;-77
2022/11/01 07:25:42;;;;;;;36.03;13.38;;;;;;;13.31;83.76;100508.03;4433457;32;33467;-78
2022/11/01 07:28:11;;;;;;;34.10;13.90;;;;;;;13.61;81.89;100503.28;4435576;32;33658;-78
2022/11/01 07:30:39;;;;;;;27.98;13.50;;;;;;;13.49;82.75;100508.84;4403377;32;32176;-78
2022/11/01 07:33:08;;;;;;;30.45;13.80;;;;;;;13.38;83.10;100512.69;4428800;32;33313;-78
2022/11/01 07:35:37;;;;;;;30.08;13.30;;;;;;;13.44;82.94;100519.88;4419323;32;34566;-78
2022/11/01 07:38:06;;;;;;;27.87;13.20;;;;;;;13.62;81.78;100509.38;4412715;32;33430;-77
2022/11/01 07:40:40;;;;;;;30.58;14.05;;;;;;;13.38;82.80;100517.88;4426873;32;33683;-78
2022/11/01 07:43:08;;;;;;;26.67;13.00;;;;;;;13.07;84.16;100524.25;4425859;32;33441;-77
2022/11/01 07:45:36;;;;;;;29.60;13.25;;;;;;;13.28;83.52;100528.66;4429987;32;34360;-78
2022/11/01 07:48:09;;;;;;;27.17;13.07;;;;;;;13.40;82.81;100524.03;4429407;32;34516;-77
2022/11/01 07:50:38;;;;;;;24.48;12.32;;;;;;;13.48;82.35;100521.78;4412856;32;34828;-78
2022/11/01 07:53:14;;;;;;;25.45;12.82;;;;;;;13.29;83.21;100520.03;4431481;32;34087;-80
2022/11/01 07:55:42;;;;;;;26.33;12.77;;;;;;;13.40;82.36;100521.44;4428966;32;33805;-79
2022/11/01 07:58:11;;;;;;;28.90;13.98;;;;;;;13.90;80.49;100522.75;4430217;32;33942;-80
2022/11/01 08:00:42;;;;;;;29.20;12.90;;;;;;;13.23;83.34;100523.28;4427022;32;33785;-78
2022/11/01 08:03:14;;;;;;;29.20;13.80;;;;;;;13.24;83.95;100518.94;4426649;32;32999;-78
2022/11/01 08:05:43;;;;;;;31.00;14.27;;;;;;;13.28;83.66;100513.94;4414207;32;33944;-78
2022/11/01 08:08:12;;;;;;;29.73;13.85;;;;;;;13.26;83.63;100509.50;4425081;32;33825;-78
2022/11/01 08:10:41;;;;;;;32.88;13.90;;;;;;;13.42;83.00;100509.38;4428141;32;33900;-77
2022/11/01 08:13:18;;;;;;;31.35;14.02;;;;;;;13.62;82.62;100504.16;4428999;32;34460;-77
2022/11/01 08:15:48;;;;;;;28.20;13.43;;;;;;;13.73;81.39;100508.13;4427289;32;33673;-81
2022/11/01 08:18:17;;;;;;;29.90;14.27;;;;;;;13.68;81.56;100504.47;4427106;32;34402;-82
2022/11/01 08:20:45;;;;;;;34.28;15.07;;;;;;;13.29;83.39;100504.41;4430297;32;34693;-82
2022/11/01 08:23:13;;;;;;;29.50;13.23;;;;;;;13.47;82.52;100510.50;4436387;32;33261;-83
2022/11/01 08:25:41;;;;;;;29.35;12.82;;;;;;;13.91;81.09;100508.06;4436315;32;33864;-82
2022/11/01 08:28:18;;;;;;;29.52;13.13;;;;;;;13.69;81.29;100512.31;4443797;32;34388;-81
2022/11/01 08:30:48;;;;;;;33.17;15.43;;;;;;;13.59;81.17;100509.25;4427868;32;34506;-81
2022/11/01 08:33:16;;;;;;;26.25;13.80;;;;;;;13.54;81.92;100496.94;4413674;32;33209;-80
2022/11/01 08:35:44;;;;;;;27.60;13.82;;;;;;;13.54;82.48;100512.56;4428431;32;33240;-81
2022/11/01 08:38:18;;;;;;;27.90;12.88;;;;;;;13.57;82.05;100507.47;4426539;32;34517;-77
2022/11/01 08:40:46;;;;;;;29.65;13.55;;;;;;;13.76;81.09;100516.09;4433491;32;34875;-79
2022/11/01 08:43:14;;;;;;;28.15;12.73;;;;;;;13.42;82.53;100506.78;4437151;32;34011;-79
2022/11/01 08:45:43;;;;;;;28.73;12.82;;;;;;;13.23;83.52;100517.16;4428119;32;34797;-76
2022/11/01 08:48:11;;;;;;;28.38;13.32;;;;;;;13.46;83.00;100513.94;4432965;32;34438;-77
2022/11/01 08:50:40;;;;;;;26.55;13.55;;;;;;;13.36;83.51;100507.41;4432663;32;33635;-79
2022/11/01 08:53:11;;;;;;;28.50;13.88;;;;;;;13.76;81.67;100503.94;4437901;32;33583;-82
2022/11/01 08:55:40;;;;;;;25.55;12.25;;;;;;;13.69;81.69;100506.22;4427971;32;32819;-82
2022/11/01 08:58:09;;;;;;;25.75;12.48;;;;;;;13.77;81.42;100504.81;4436125;32;34030;-81
2022/11/01 09:00:38;;;;;;;28.52;13.77;;;;;;;13.56;82.14;100505.69;4433642;32;34166;-81
2022/11/01 09:03:06;;;;;;;28.75;13.80;;;;;;;13.81;81.03;100501.56;4419339;32;33284;-81
2022/11/01 09:05:35;;;;;;;29.95;14.55;;;;;;;14.02;80.59;100504.16;4435776;32;34278;-79
2022/11/01 09:08:03;;;;;;;31.15;13.85;;;;;;;13.96;80.69;100502.22;4433356;32;33662;-79
2022/11/01 09:10:31;;;;;;;44.00;15.75;;;;;;;13.94;80.41;100501.22;4434217;32;34617;-78
2022/11/01 09:13:01;;;;;;;27.05;13.75;;;;;;;13.64;81.72;100505.16;4435815;32;33374;-78
2022/11/01 09:15:30;;;;;;;29.17;14.15;;;;;;;13.64;81.78;100499.94;4436687;32;31938;-80
2022/11/01 09:18:05;;;;;;;29.90;14.68;;;;;;;13.66;81.67;100501.78;4432210;32;33861;-80
2022/11/01 09:20:33;;;;;;;27.90;14.50;;;;;;;13.91;80.73;100498.50;4423810;32;33949;-80
2022/11/01 09:23:01;;;;;;;30.62;14.27;;;;;;;13.93;79.89;100496.88;4436216;32;33286;-80
2022/11/01 09:25:29;;;;;;;29.08;14.65;;;;;;;13.68;81.51;100494.03;4428946;32;33629;-79
2022/11/01 09:27:57;;;;;;;29.35;14.27;;;;;;;14.08;80.18;100490.50;4436793;32;34029;-80
2022/11/01 09:30:25;;;;;;;29.95;14.20;;;;;;;13.94;80.71;100493.41;4438455;32;33647;-80
2022/11/01 09:32:53;;;;;;;27.40;14.18;;;;;;;14.06;80.39;100498.28;4443189;32;33872;-80
2022/11/01 09:35:22;;;;;;;29.52;14.18;;;;;;;14.24;79.34;100498.16;4434322;32;33774;-81
2022/11/01 09:37:57;;;;;;;32.60;16.10;;;;;;;14.18;79.93;100497.91;4451294;32;32838;-80
2022/11/01 09:40:26;;;;;;;30.48;14.43;;;;;;;14.07;80.77;100496.56;4435620;32;33663;-79
2022/11/01 09:42:55;;;;;;;28.33;14.25;;;;;;;14.50;78.32;100499.19;4431127;32;33429;-80
2022/11/01 09:45:31;;;;;;;27.87;14.52;;;;;;;14.41;78.53;100495.31;4448884;32;34528;-80
2022/11/01 09:48:01;;;;;;;32.50;14.30;;;;;;;14.34;79.05;100495.06;4434561;32;34645;-79
2022/11/01 09:50:33;;;;;;;30.88;14.95;;;;;;;14.44;78.73;100485.03;4429029;32;33088;-80
2022/11/01 09:53:03;;;;;;;31.23;13.27;;;;;;;14.37;79.02;100494.34;4438994;32;33351;-80
2022/11/01 09:55:54;;;;;;;26.37;13.32;;;;;;;13.92;80.86;100496.78;4436123;32;33149;-82
2022/11/01 09:58:33;;;;;;;37.20;17.83;;;;;;;13.67;81.76;100498.34;4444544;32;33936;-80
2022/11/01 10:01:38;;;;;;;29.55;15.98;;;;;;;14.40;78.73;100493.56;4421610;32;31879;-79
2022/11/01 10:04:27;;;;;;;43.85;28.65;;;;;;;14.38;78.89;100485.66;4431720;32;33345;-80
2022/11/01 10:07:02;;;;;;;28.55;15.40;;;;;;;14.85;76.94;100496.22;4433183;32;33963;-80
2022/11/01 10:10:02;;;;;;;27.13;13.52;;;;;;;14.11;79.87;100490.66;4436422;32;31465;-80
2022/11/01 10:12:36;;;;;;;25.80;12.95;;;;;;;13.31;82.63;100492.44;4421566;32;33763;-81
2022/11/01 10:15:40;;;;;;;24.25;13.20;;;;;;;13.91;80.08;100482.88;4431011;32;33483;-79
2022/11/01 10:18:28;;;;;;;24.73;13.73;;;;;;;14.11;79.35;100480.22;4428323;32;33394;-80
2022/11/01 10:20:58;;;;;;;28.08;15.18;;;;;;;13.63;81.43;100478.22;4440977;32;34721;-79
2022/11/01 10:23:43;;;;;;;25.50;13.30;;;;;;;14.00;80.29;100476.28;4443485;32;34777;-79
2022/11/01 10:26:15;;;;;;;27.10;14.77;;;;;;;14.19;79.69;100478.81;4428050;32;33394;-79
2022/11/01 10:29:00;;;;;;;28.52;13.55;;;;;;;14.40;78.85;100472.72;4423387;32;34729;-80
2022/11/01 10:31:27;;;;;;;;;;;;;;;14.29;79.11;100475.78;4419046;32;33578;-80
2022/11/01 10:34:01;;;;;;;28.95;14.15;;;;;;;14.33;78.22;100474.16;4435592;32;33745;-79
2022/11/01 10:36:34;;;;;;;30.62;14.98;;;;;;;14.79;76.56;100472.53;4425966;32;33188;-79
2022/11/01 10:39:17;;;;;;;28.30;15.18;;;;;;;14.83;76.53;100469.19;4415045;32;34456;-80
2022/11/01 10:42:12;;;;;;;29.17;14.18;;;;;;;14.66;77.13;100482.50;4439411;32;33371;-80
2022/11/01 10:44:43;;;;;;;39.88;14.77;;;;;;;14.58;78.05;100473.44;4428783;32;33166;-80
2022/11/01 10:47:15;;;;;;;26.60;13.77;;;;;;;14.57;77.95;100476.91;4428149;32;34234;-79
2022/11/01 10:49:59;;;;;;;27.00;12.85;;;;;;;14.72;78.41;100472.28;4434645;32;33659;-79
2022/11/01 10:52:57;;;;;;;26.60;13.65;;;;;;;14.72;77.82;100472.28;4410846;32;34119;-80
2022/11/01 10:55:49;;;;;;;26.98;13.62;;;;;;;14.78;78.82;100475.97;4426273;32;33887;-79
2022/11/01 10:58:33;;;;;;;29.37;14.48;;;;;;;14.85;77.72;100468.41;4433150;32;33355;-80
2022/11/01 11:01:03;;;;;;;28.85;14.95;;;;;;;14.68;78.73;100467.78;4433810;32;34156;-79
2022/11/01 11:03:33;;;;;;;31.23;14.73;;;;;;;14.80;77.39;100464.75;4421693;32;34283;-80
2022/11/01 11:06:04;;;;;;;30.95;14.77;;;;;;;15.19;75.38;100463.59;4425562;32;33806;-80
2022/11/01 11:08:36;;;;;;;30.05;14.87;;;;;;;14.92;77.14;100464.34;4418357;32;34083;-79
2022/11/01 11:11:09;;;;;;;31.92;15.75;;;;;;;15.30;75.27;100467.47;4416954;32;34384;-81
2022/11/01 11:13:43;;;;;;;35.58;16.37;;;;;;;14.97;76.74;100457.56;4414426;32;34515;-76
2022/11/01 11:16:36;;;;;;;31.97;17.33;;;;;;;15.10;75.75;100466.72;4426753;32;34028;-76
2022/11/01 11:19:07;;;;;;;31.60;15.85;;;;;;;14.85;76.99;100462.31;4428711;32;33550;-78
2022/11/01 11:21:35;;;;;;;28.80;15.48;;;;;;;14.95;76.67;100448.81;4426379;32;33830;-74
2022/11/01 11:24:04;;;;;;;33.90;16.15;;;;;;;14.99;76.05;100450.69;4411166;32;34756;-76
2022/11/01 11:26:37;;;;;;;33.40;15.68;;;;;;;14.90;76.57;100450.34;4423270;32;33543;-79
2022/11/01 11:29:06;;;;;;;31.17;15.57;;;;;;;15.11;75.82;100445.91;4422232;32;33831;-77
2022/11/01 11:31:36;;;;;;;29.75;15.02;;;;;;;14.89;76.91;100448.56;4429750;32;33749;-77
2022/11/01 11:34:06;;;;;;;31.92;14.77;;;;;;;15.04;76.07;100450.84;4427159;32;34582;-77
2022/11/01 11:36:37;;;;;;;37.72;17.75;;;;;;;14.69;76.23;100445.19;4423154;32;34313;-77
2022/11/01 11:39:35;;;;;;;36.00;18.52;;;;;;;15.02;75.34;100445.56;4424196;32;33238;-77
2022/11/01 11:42:18;;;;;;;40.70;20.12;;;;;;;15.17;75.29;100449.59;4425851;32;34312;-77